Accueil
Images satellite Prévisions 15 joursClimatMétéo marine Cyclones Foudre AéroportsFAQ Actualités A propos
Météo : Europe Afrique Amérique du Nord Amérique du Sud Asie Australie-Océanie Autres
Langues Contact

Bauru, São Paulo, Brésil

latitude: 22-19S, longitude: 049-04W, altitude: 590 m


METAR: SBBU 221500Z 34003KT CAVOK 29/15 Q1019
short-TAF: périmé (56385 heures)
long-TAF: périmé (21729 heures)

Heure: 12:41 (15:41 UTC)

Observation

Le bulletin a été fait il y a 41 minutes, à 15:00 UTC  
Vent 03 kt de nord/nord-ouest
Température 29°C
Humidité 43%
Pression 1019 hPa
Visibilité 10 km ou plus
pas de nuages en-dessous de 1500 mètres et pas de cumulonimbus.

Changer d'unités
Les informations qui figurent sur ce site font l'objet d'une clause de non-responsabilité
Météo : Europe Afrique Amérique du Nord Amérique du Sud Asie Australie-Océanie Autres
Images satellite Prévisions 15 joursClimatMétéo marine Cyclones Foudre AéroportsFAQ Langues Contact Actualités A propos